sensor_id;sensor_type;location;lat;lon;timestamp;P1;durP1;ratioP1;P2;durP2;ratioP2
12663;SDS011;6396;58.490;15.528;2022-09-09T00:02:15;1.30;;;1.20;;
12663;SDS011;6396;58.490;15.528;2022-09-09T00:04:48;1.00;;;1.00;;
12663;SDS011;6396;58.490;15.528;2022-09-09T00:07:30;2.00;;;1.30;;
12663;SDS011;6396;58.490;15.528;2022-09-09T00:10:09;2.63;;;1.40;;
12663;SDS011;6396;58.490;15.528;2022-09-09T00:12:44;1.10;;;1.10;;
12663;SDS011;6396;58.490;15.528;2022-09-09T00:15:33;1.40;;;1.20;;
12663;SDS011;6396;58.490;15.528;2022-09-09T00:18:12;1.30;;;1.20;;
12663;SDS011;6396;58.490;15.528;2022-09-09T00:20:49;1.90;;;1.10;;
12663;SDS011;6396;58.490;15.528;2022-09-09T00:23:24;1.43;;;1.33;;
12663;SDS011;6396;58.490;15.528;2022-09-09T00:25:56;2.10;;;1.40;;
12663;SDS011;6396;58.490;15.528;2022-09-09T00:28:28;1.87;;;1.30;;
12663;SDS011;6396;58.490;15.528;2022-09-09T00:30:59;1.53;;;1.10;;
12663;SDS011;6396;58.490;15.528;2022-09-09T00:33:44;1.20;;;1.10;;
12663;SDS011;6396;58.490;15.528;2022-09-09T00:36:15;1.77;;;1.57;;
12663;SDS011;6396;58.490;15.528;2022-09-09T00:38:48;2.13;;;1.40;;
12663;SDS011;6396;58.490;15.528;2022-09-09T00:41:19;1.37;;;1.20;;
12663;SDS011;6396;58.490;15.528;2022-09-09T00:43:56;1.30;;;1.20;;
12663;SDS011;6396;58.490;15.528;2022-09-09T00:46:33;1.63;;;1.30;;
12663;SDS011;6396;58.490;15.528;2022-09-09T00:49:20;1.47;;;1.37;;
12663;SDS011;6396;58.490;15.528;2022-09-09T00:52:00;1.40;;;1.30;;
12663;SDS011;6396;58.490;15.528;2022-09-09T00:54:38;1.30;;;1.20;;
12663;SDS011;6396;58.490;15.528;2022-09-09T00:57:18;1.53;;;1.20;;
12663;SDS011;6396;58.490;15.528;2022-09-09T00:59:56;1.47;;;1.30;;
12663;SDS011;6396;58.490;15.528;2022-09-09T01:02:31;1.83;;;1.33;;
12663;SDS011;6396;58.490;15.528;2022-09-09T01:05:05;2.73;;;1.40;;
12663;SDS011;6396;58.490;15.528;2022-09-09T01:07:40;1.20;;;1.10;;
12663;SDS011;6396;58.490;15.528;2022-09-09T01:10:15;1.53;;;1.20;;
12663;SDS011;6396;58.490;15.528;2022-09-09T01:12:52;1.53;;;1.20;;
12663;SDS011;6396;58.490;15.528;2022-09-09T01:15:24;1.10;;;1.10;;
12663;SDS011;6396;58.490;15.528;2022-09-09T01:17:56;2.53;;;1.30;;
12663;SDS011;6396;58.490;15.528;2022-09-09T01:20:28;2.40;;;1.60;;
12663;SDS011;6396;58.490;15.528;2022-09-09T01:23:08;1.37;;;1.20;;
12663;SDS011;6396;58.490;15.528;2022-09-09T01:26:06;1.47;;;1.37;;
12663;SDS011;6396;58.490;15.528;2022-09-09T01:28:50;1.37;;;1.20;;
12663;SDS011;6396;58.490;15.528;2022-09-09T01:31:20;1.80;;;1.30;;
12663;SDS011;6396;58.490;15.528;2022-09-09T01:33:50;1.17;;;1.10;;
12663;SDS011;6396;58.490;15.528;2022-09-09T01:36:22;1.33;;;1.23;;
12663;SDS011;6396;58.490;15.528;2022-09-09T01:38:55;1.87;;;1.30;;
12663;SDS011;6396;58.490;15.528;2022-09-09T01:41:24;1.87;;;1.40;;
12663;SDS011;6396;58.490;15.528;2022-09-09T01:43:52;1.20;;;1.20;;
12663;SDS011;6396;58.490;15.528;2022-09-09T01:46:19;1.43;;;1.33;;
12663;SDS011;6396;58.490;15.528;2022-09-09T01:48:48;1.50;;;1.40;;
12663;SDS011;6396;58.490;15.528;2022-09-09T01:51:17;1.50;;;1.30;;
12663;SDS011;6396;58.490;15.528;2022-09-09T01:53:44;1.63;;;1.23;;
12663;SDS011;6396;58.490;15.528;2022-09-09T01:56:16;1.77;;;1.27;;
12663;SDS011;6396;58.490;15.528;2022-09-09T01:58:56;2.30;;;1.20;;
12663;SDS011;6396;58.490;15.528;2022-09-09T02:01:36;1.60;;;1.20;;
12663;SDS011;6396;58.490;15.528;2022-09-09T02:04:16;1.40;;;1.30;;
12663;SDS011;6396;58.490;15.528;2022-09-09T02:06:51;1.97;;;1.40;;
12663;SDS011;6396;58.490;15.528;2022-09-09T02:09:22;1.73;;;1.50;;
12663;SDS011;6396;58.490;15.528;2022-09-09T02:11:51;1.73;;;1.30;;
12663;SDS011;6396;58.490;15.528;2022-09-09T02:14:30;1.77;;;1.30;;
12663;SDS011;6396;58.490;15.528;2022-09-09T02:17:03;2.50;;;1.10;;
12663;SDS011;6396;58.490;15.528;2022-09-09T02:19:36;2.47;;;1.50;;
12663;SDS011;6396;58.490;15.528;2022-09-09T02:22:07;2.23;;;1.37;;
12663;SDS011;6396;58.490;15.528;2022-09-09T02:24:35;1.63;;;1.30;;
12663;SDS011;6396;58.490;15.528;2022-09-09T02:27:05;2.30;;;1.20;;
12663;SDS011;6396;58.490;15.528;2022-09-09T02:29:37;2.20;;;1.47;;
12663;SDS011;6396;58.490;15.528;2022-09-09T02:32:07;2.23;;;1.40;;
12663;SDS011;6396;58.490;15.528;2022-09-09T02:34:39;1.63;;;1.53;;
12663;SDS011;6396;58.490;15.528;2022-09-09T02:37:10;1.27;;;1.17;;
12663;SDS011;6396;58.490;15.528;2022-09-09T02:39:39;3.27;;;1.40;;
12663;SDS011;6396;58.490;15.528;2022-09-09T02:42:05;2.07;;;1.60;;
12663;SDS011;6396;58.490;15.528;2022-09-09T02:44:33;1.90;;;1.40;;
12663;SDS011;6396;58.490;15.528;2022-09-09T02:47:13;4.13;;;1.50;;
12663;SDS011;6396;58.490;15.528;2022-09-09T02:49:56;2.57;;;1.53;;
12663;SDS011;6396;58.490;15.528;2022-09-09T02:52:32;1.63;;;1.40;;
12663;SDS011;6396;58.490;15.528;2022-09-09T02:55:11;2.60;;;1.60;;
12663;SDS011;6396;58.490;15.528;2022-09-09T02:57:43;2.60;;;1.33;;
12663;SDS011;6396;58.490;15.528;2022-09-09T03:00:12;2.20;;;1.23;;
12663;SDS011;6396;58.490;15.528;2022-09-09T03:02:41;2.70;;;1.70;;
12663;SDS011;6396;58.490;15.528;2022-09-09T03:05:08;2.50;;;1.50;;
12663;SDS011;6396;58.490;15.528;2022-09-09T03:07:35;1.50;;;1.40;;
12663;SDS011;6396;58.490;15.528;2022-09-09T03:10:02;2.77;;;1.50;;
12663;SDS011;6396;58.490;15.528;2022-09-09T03:12:29;1.50;;;1.40;;
12663;SDS011;6396;58.490;15.528;2022-09-09T03:14:56;1.90;;;1.37;;
12663;SDS011;6396;58.490;15.528;2022-09-09T03:17:23;2.27;;;1.50;;
12663;SDS011;6396;58.490;15.528;2022-09-09T03:19:51;4.23;;;1.50;;
12663;SDS011;6396;58.490;15.528;2022-09-09T03:22:19;2.47;;;1.43;;
12663;SDS011;6396;58.490;15.528;2022-09-09T03:24:46;1.87;;;1.40;;
12663;SDS011;6396;58.490;15.528;2022-09-09T03:27:13;3.63;;;1.50;;
12663;SDS011;6396;58.490;15.528;2022-09-09T03:29:40;1.87;;;1.40;;
12663;SDS011;6396;58.490;15.528;2022-09-09T03:32:07;1.93;;;1.47;;
12663;SDS011;6396;58.490;15.528;2022-09-09T03:34:35;2.20;;;1.33;;
12663;SDS011;6396;58.490;15.528;2022-09-09T03:37:03;2.83;;;1.60;;
12663;SDS011;6396;58.490;15.528;2022-09-09T03:39:30;2.00;;;1.50;;
12663;SDS011;6396;58.490;15.528;2022-09-09T03:41:57;2.77;;;1.40;;
12663;SDS011;6396;58.490;15.528;2022-09-09T03:44:24;1.63;;;1.40;;
12663;SDS011;6396;58.490;15.528;2022-09-09T03:46:51;2.73;;;1.30;;
12663;SDS011;6396;58.490;15.528;2022-09-09T03:49:17;2.93;;;1.93;;
12663;SDS011;6396;58.490;15.528;2022-09-09T03:51:45;1.80;;;1.30;;
12663;SDS011;6396;58.490;15.528;2022-09-09T03:54:13;2.30;;;1.30;;
12663;SDS011;6396;58.490;15.528;2022-09-09T03:56:40;1.63;;;1.30;;
12663;SDS011;6396;58.490;15.528;2022-09-09T03:59:06;2.90;;;1.43;;
12663;SDS011;6396;58.490;15.528;2022-09-09T04:01:34;4.40;;;1.60;;
12663;SDS011;6396;58.490;15.528;2022-09-09T04:04:01;3.77;;;1.57;;
12663;SDS011;6396;58.490;15.528;2022-09-09T04:06:28;1.50;;;1.40;;
12663;SDS011;6396;58.490;15.528;2022-09-09T04:08:55;1.80;;;1.37;;
12663;SDS011;6396;58.490;15.528;2022-09-09T04:11:23;2.97;;;1.53;;
12663;SDS011;6396;58.490;15.528;2022-09-09T04:13:50;2.40;;;1.20;;
12663;SDS011;6396;58.490;15.528;2022-09-09T04:16:17;2.37;;;1.30;;
12663;SDS011;6396;58.490;15.528;2022-09-09T04:18:45;1.27;;;1.17;;
12663;SDS011;6396;58.490;15.528;2022-09-09T04:21:12;1.50;;;1.23;;
12663;SDS011;6396;58.490;15.528;2022-09-09T04:23:40;1.37;;;1.17;;
12663;SDS011;6396;58.490;15.528;2022-09-09T04:26:07;2.27;;;1.47;;
12663;SDS011;6396;58.490;15.528;2022-09-09T04:28:38;2.20;;;1.17;;
12663;SDS011;6396;58.490;15.528;2022-09-09T04:31:06;3.83;;;1.40;;
12663;SDS011;6396;58.490;15.528;2022-09-09T04:33:34;1.53;;;1.30;;
12663;SDS011;6396;58.490;15.528;2022-09-09T04:36:01;3.07;;;1.60;;
12663;SDS011;6396;58.490;15.528;2022-09-09T04:38:28;1.93;;;1.27;;
12663;SDS011;6396;58.490;15.528;2022-09-09T04:40:55;1.70;;;1.30;;
12663;SDS011;6396;58.490;15.528;2022-09-09T04:43:22;1.73;;;1.20;;
12663;SDS011;6396;58.490;15.528;2022-09-09T04:45:52;3.23;;;1.30;;
12663;SDS011;6396;58.490;15.528;2022-09-09T04:48:19;4.87;;;1.60;;
12663;SDS011;6396;58.490;15.528;2022-09-09T04:50:53;1.27;;;1.13;;
12663;SDS011;6396;58.490;15.528;2022-09-09T04:53:21;1.57;;;1.23;;
12663;SDS011;6396;58.490;15.528;2022-09-09T04:55:48;1.90;;;1.30;;
12663;SDS011;6396;58.490;15.528;2022-09-09T04:58:15;2.60;;;1.30;;
12663;SDS011;6396;58.490;15.528;2022-09-09T05:00:43;2.00;;;1.10;;
12663;SDS011;6396;58.490;15.528;2022-09-09T05:03:12;2.13;;;1.30;;
12663;SDS011;6396;58.490;15.528;2022-09-09T05:05:38;1.57;;;1.10;;
12663;SDS011;6396;58.490;15.528;2022-09-09T05:08:06;2.23;;;1.00;;
12663;SDS011;6396;58.490;15.528;2022-09-09T05:10:36;2.43;;;1.23;;
12663;SDS011;6396;58.490;15.528;2022-09-09T05:13:03;2.13;;;1.27;;
12663;SDS011;6396;58.490;15.528;2022-09-09T05:15:31;6.43;;;1.27;;
12663;SDS011;6396;58.490;15.528;2022-09-09T05:17:58;2.27;;;1.20;;
12663;SDS011;6396;58.490;15.528;2022-09-09T05:20:28;2.33;;;1.30;;
12663;SDS011;6396;58.490;15.528;2022-09-09T05:22:57;4.03;;;1.20;;
12663;SDS011;6396;58.490;15.528;2022-09-09T05:25:25;2.27;;;1.40;;
12663;SDS011;6396;58.490;15.528;2022-09-09T05:27:52;1.97;;;1.00;;
12663;SDS011;6396;58.490;15.528;2022-09-09T05:30:19;1.70;;;1.20;;
12663;SDS011;6396;58.490;15.528;2022-09-09T05:32:47;1.83;;;1.30;;
12663;SDS011;6396;58.490;15.528;2022-09-09T05:35:14;3.43;;;1.23;;
12663;SDS011;6396;58.490;15.528;2022-09-09T05:37:42;2.83;;;1.20;;
12663;SDS011;6396;58.490;15.528;2022-09-09T05:40:11;1.80;;;1.13;;
12663;SDS011;6396;58.490;15.528;2022-09-09T05:42:38;1.60;;;1.20;;
12663;SDS011;6396;58.490;15.528;2022-09-09T05:45:05;2.40;;;1.20;;
12663;SDS011;6396;58.490;15.528;2022-09-09T05:47:33;2.33;;;1.27;;
12663;SDS011;6396;58.490;15.528;2022-09-09T05:50:02;2.57;;;1.20;;
12663;SDS011;6396;58.490;15.528;2022-09-09T05:52:29;3.27;;;1.30;;
12663;SDS011;6396;58.490;15.528;2022-09-09T05:54:58;1.20;;;1.10;;
12663;SDS011;6396;58.490;15.528;2022-09-09T05:57:25;4.23;;;1.37;;
12663;SDS011;6396;58.490;15.528;2022-09-09T05:59:52;1.43;;;1.20;;
12663;SDS011;6396;58.490;15.528;2022-09-09T06:02:19;1.57;;;1.40;;
12663;SDS011;6396;58.490;15.528;2022-09-09T06:04:48;2.00;;;1.20;;
12663;SDS011;6396;58.490;15.528;2022-09-09T06:07:15;1.30;;;1.10;;
12663;SDS011;6396;58.490;15.528;2022-09-09T06:09:41;1.20;;;1.07;;
12663;SDS011;6396;58.490;15.528;2022-09-09T06:12:09;2.30;;;1.20;;
12663;SDS011;6396;58.490;15.528;2022-09-09T06:14:36;2.10;;;1.37;;
12663;SDS011;6396;58.490;15.528;2022-09-09T06:17:03;2.83;;;1.40;;
12663;SDS011;6396;58.490;15.528;2022-09-09T06:19:30;1.20;;;1.10;;
12663;SDS011;6396;58.490;15.528;2022-09-09T06:21:57;2.53;;;1.50;;
12663;SDS011;6396;58.490;15.528;2022-09-09T06:24:24;2.27;;;1.30;;
12663;SDS011;6396;58.490;15.528;2022-09-09T06:26:52;1.90;;;1.70;;
12663;SDS011;6396;58.490;15.528;2022-09-09T06:29:23;1.33;;;1.23;;
12663;SDS011;6396;58.490;15.528;2022-09-09T06:31:53;1.60;;;1.37;;
12663;SDS011;6396;58.490;15.528;2022-09-09T06:34:20;3.87;;;1.37;;
12663;SDS011;6396;58.490;15.528;2022-09-09T06:36:47;2.20;;;1.40;;
12663;SDS011;6396;58.490;15.528;2022-09-09T06:39:13;3.53;;;1.20;;
12663;SDS011;6396;58.490;15.528;2022-09-09T06:41:40;2.30;;;1.30;;
12663;SDS011;6396;58.490;15.528;2022-09-09T06:44:08;2.33;;;1.20;;
12663;SDS011;6396;58.490;15.528;2022-09-09T06:46:38;1.30;;;1.00;;
12663;SDS011;6396;58.490;15.528;2022-09-09T06:49:05;2.37;;;1.40;;
12663;SDS011;6396;58.490;15.528;2022-09-09T06:51:33;2.57;;;1.30;;
12663;SDS011;6396;58.490;15.528;2022-09-09T06:54:02;1.77;;;1.30;;
12663;SDS011;6396;58.490;15.528;2022-09-09T06:56:30;2.17;;;1.30;;
12663;SDS011;6396;58.490;15.528;2022-09-09T06:58:59;1.27;;;1.17;;
12663;SDS011;6396;58.490;15.528;2022-09-09T07:01:29;1.80;;;1.30;;
12663;SDS011;6396;58.490;15.528;2022-09-09T07:03:59;4.20;;;1.40;;
12663;SDS011;6396;58.490;15.528;2022-09-09T07:06:28;4.80;;;1.43;;
12663;SDS011;6396;58.490;15.528;2022-09-09T07:08:56;3.17;;;1.60;;
12663;SDS011;6396;58.490;15.528;2022-09-09T07:11:24;2.00;;;1.30;;
12663;SDS011;6396;58.490;15.528;2022-09-09T07:13:53;1.63;;;1.23;;
12663;SDS011;6396;58.490;15.528;2022-09-09T07:16:21;1.53;;;1.10;;
12663;SDS011;6396;58.490;15.528;2022-09-09T07:18:49;1.77;;;1.37;;
12663;SDS011;6396;58.490;15.528;2022-09-09T07:21:18;1.97;;;1.33;;
12663;SDS011;6396;58.490;15.528;2022-09-09T07:23:46;2.77;;;1.40;;
12663;SDS011;6396;58.490;15.528;2022-09-09T07:26:13;2.07;;;1.33;;
12663;SDS011;6396;58.490;15.528;2022-09-09T07:28:42;2.63;;;1.40;;
12663;SDS011;6396;58.490;15.528;2022-09-09T07:33:41;1.47;;;1.33;;
12663;SDS011;6396;58.490;15.528;2022-09-09T07:36:09;3.00;;;1.50;;
12663;SDS011;6396;58.490;15.528;2022-09-09T07:38:40;1.80;;;1.50;;
12663;SDS011;6396;58.490;15.528;2022-09-09T07:41:11;1.70;;;1.40;;
12663;SDS011;6396;58.490;15.528;2022-09-09T07:43:39;2.87;;;1.50;;
12663;SDS011;6396;58.490;15.528;2022-09-09T07:46:06;3.53;;;1.90;;
12663;SDS011;6396;58.490;15.528;2022-09-09T07:48:33;2.43;;;1.47;;
12663;SDS011;6396;58.490;15.528;2022-09-09T07:51:04;2.17;;;1.60;;
12663;SDS011;6396;58.490;15.528;2022-09-09T07:53:33;1.40;;;1.30;;
12663;SDS011;6396;58.490;15.528;2022-09-09T07:56:07;1.63;;;1.47;;
12663;SDS011;6396;58.490;15.528;2022-09-09T07:58:36;2.07;;;1.50;;
12663;SDS011;6396;58.490;15.528;2022-09-09T08:01:07;1.83;;;1.67;;
12663;SDS011;6396;58.490;15.528;2022-09-09T08:03:35;2.83;;;1.50;;
12663;SDS011;6396;58.490;15.528;2022-09-09T08:06:02;3.07;;;1.60;;
12663;SDS011;6396;58.490;15.528;2022-09-09T08:08:32;3.57;;;1.50;;
12663;SDS011;6396;58.490;15.528;2022-09-09T08:11:03;2.43;;;1.70;;
12663;SDS011;6396;58.490;15.528;2022-09-09T08:13:34;2.27;;;1.80;;
12663;SDS011;6396;58.490;15.528;2022-09-09T08:16:05;2.10;;;1.90;;
12663;SDS011;6396;58.490;15.528;2022-09-09T08:18:33;1.43;;;1.33;;
12663;SDS011;6396;58.490;15.528;2022-09-09T08:21:07;1.60;;;1.50;;
12663;SDS011;6396;58.490;15.528;2022-09-09T08:23:36;3.03;;;1.60;;
12663;SDS011;6396;58.490;15.528;2022-09-09T08:26:05;2.20;;;1.50;;
12663;SDS011;6396;58.490;15.528;2022-09-09T08:28:35;2.27;;;1.70;;
12663;SDS011;6396;58.490;15.528;2022-09-09T08:31:06;2.57;;;1.60;;
12663;SDS011;6396;58.490;15.528;2022-09-09T08:33:34;3.70;;;1.70;;
12663;SDS011;6396;58.490;15.528;2022-09-09T08:36:03;2.83;;;1.57;;
12663;SDS011;6396;58.490;15.528;2022-09-09T08:38:31;6.27;;;1.80;;
12663;SDS011;6396;58.490;15.528;2022-09-09T08:41:00;1.67;;;1.50;;
12663;SDS011;6396;58.490;15.528;2022-09-09T08:43:38;3.00;;;1.50;;
12663;SDS011;6396;58.490;15.528;2022-09-09T08:46:09;1.60;;;1.50;;
12663;SDS011;6396;58.490;15.528;2022-09-09T08:48:42;2.03;;;1.60;;
12663;SDS011;6396;58.490;15.528;2022-09-09T08:51:20;3.00;;;1.40;;
12663;SDS011;6396;58.490;15.528;2022-09-09T08:53:48;1.97;;;1.70;;
12663;SDS011;6396;58.490;15.528;2022-09-09T08:56:18;2.67;;;1.87;;
12663;SDS011;6396;58.490;15.528;2022-09-09T08:58:51;2.57;;;1.40;;
12663;SDS011;6396;58.490;15.528;2022-09-09T09:04:21;1.77;;;1.67;;
12663;SDS011;6396;58.490;15.528;2022-09-09T09:07:02;1.93;;;1.40;;
12663;SDS011;6396;58.490;15.528;2022-09-09T09:09:41;3.47;;;1.97;;
12663;SDS011;6396;58.490;15.528;2022-09-09T09:12:18;4.40;;;1.70;;
12663;SDS011;6396;58.490;15.528;2022-09-09T09:14:49;1.60;;;1.50;;
12663;SDS011;6396;58.490;15.528;2022-09-09T09:17:17;2.10;;;1.90;;
12663;SDS011;6396;58.490;15.528;2022-09-09T09:19:46;1.50;;;1.40;;
12663;SDS011;6396;58.490;15.528;2022-09-09T09:22:16;1.57;;;1.40;;
12663;SDS011;6396;58.490;15.528;2022-09-09T09:24:48;2.03;;;1.53;;
12663;SDS011;6396;58.490;15.528;2022-09-09T09:27:19;1.50;;;1.40;;
12663;SDS011;6396;58.490;15.528;2022-09-09T09:30:01;3.67;;;1.50;;
12663;SDS011;6396;58.490;15.528;2022-09-09T09:32:33;1.70;;;1.60;;
12663;SDS011;6396;58.490;15.528;2022-09-09T09:35:03;4.40;;;1.73;;
12663;SDS011;6396;58.490;15.528;2022-09-09T09:37:36;1.40;;;1.30;;
12663;SDS011;6396;58.490;15.528;2022-09-09T09:40:09;3.37;;;1.73;;
12663;SDS011;6396;58.490;15.528;2022-09-09T09:42:37;4.20;;;1.70;;
12663;SDS011;6396;58.490;15.528;2022-09-09T09:45:16;1.43;;;1.30;;
12663;SDS011;6396;58.490;15.528;2022-09-09T09:48:00;1.73;;;1.20;;
12663;SDS011;6396;58.490;15.528;2022-09-09T09:50:28;1.53;;;1.33;;
12663;SDS011;6396;58.490;15.528;2022-09-09T09:52:57;2.50;;;1.40;;
12663;SDS011;6396;58.490;15.528;2022-09-09T09:55:25;3.40;;;1.60;;
12663;SDS011;6396;58.490;15.528;2022-09-09T09:58:00;1.90;;;1.43;;
12663;SDS011;6396;58.490;15.528;2022-09-09T10:00:29;4.43;;;1.50;;
12663;SDS011;6396;58.490;15.528;2022-09-09T10:02:56;3.00;;;1.30;;
12663;SDS011;6396;58.490;15.528;2022-09-09T10:05:26;2.27;;;1.60;;
12663;SDS011;6396;58.490;15.528;2022-09-09T10:08:01;1.93;;;1.40;;
12663;SDS011;6396;58.490;15.528;2022-09-09T10:10:40;3.93;;;1.53;;
12663;SDS011;6396;58.490;15.528;2022-09-09T10:13:33;2.83;;;1.60;;
12663;SDS011;6396;58.490;15.528;2022-09-09T10:16:13;1.13;;;1.10;;
12663;SDS011;6396;58.490;15.528;2022-09-09T10:18:56;1.97;;;1.60;;
12663;SDS011;6396;58.490;15.528;2022-09-09T10:21:32;1.57;;;1.47;;
12663;SDS011;6396;58.490;15.528;2022-09-09T10:24:21;6.00;;;1.70;;
12663;SDS011;6396;58.490;15.528;2022-09-09T10:27:05;1.43;;;1.30;;
12663;SDS011;6396;58.490;15.528;2022-09-09T10:29:51;2.73;;;1.50;;
12663;SDS011;6396;58.490;15.528;2022-09-09T10:32:33;3.43;;;1.70;;
12663;SDS011;6396;58.490;15.528;2022-09-09T10:35:04;2.70;;;1.67;;
12663;SDS011;6396;58.490;15.528;2022-09-09T10:37:41;2.07;;;1.57;;
12663;SDS011;6396;58.490;15.528;2022-09-09T10:40:26;2.43;;;1.50;;
12663;SDS011;6396;58.490;15.528;2022-09-09T10:43:00;2.13;;;1.73;;
12663;SDS011;6396;58.490;15.528;2022-09-09T10:45:32;2.10;;;1.60;;
12663;SDS011;6396;58.490;15.528;2022-09-09T10:48:11;3.60;;;1.63;;
12663;SDS011;6396;58.490;15.528;2022-09-09T10:50:56;1.83;;;1.50;;
12663;SDS011;6396;58.490;15.528;2022-09-09T10:53:37;1.60;;;1.50;;
12663;SDS011;6396;58.490;15.528;2022-09-09T10:56:17;1.97;;;1.70;;
12663;SDS011;6396;58.490;15.528;2022-09-09T10:58:47;1.90;;;1.80;;
12663;SDS011;6396;58.490;15.528;2022-09-09T11:01:18;1.77;;;1.60;;
12663;SDS011;6396;58.490;15.528;2022-09-09T11:03:52;2.83;;;1.97;;
12663;SDS011;6396;58.490;15.528;2022-09-09T11:06:22;2.87;;;1.60;;
12663;SDS011;6396;58.490;15.528;2022-09-09T11:08:55;2.53;;;1.67;;
12663;SDS011;6396;58.490;15.528;2022-09-09T11:11:27;2.30;;;1.60;;
12663;SDS011;6396;58.490;15.528;2022-09-09T11:13:59;3.10;;;1.80;;
12663;SDS011;6396;58.490;15.528;2022-09-09T11:16:33;2.60;;;1.90;;
12663;SDS011;6396;58.490;15.528;2022-09-09T11:19:11;2.73;;;2.00;;
12663;SDS011;6396;58.490;15.528;2022-09-09T11:21:46;4.23;;;2.23;;
12663;SDS011;6396;58.490;15.528;2022-09-09T11:24:18;3.97;;;2.00;;
12663;SDS011;6396;58.490;15.528;2022-09-09T11:26:51;2.77;;;1.70;;
12663;SDS011;6396;58.490;15.528;2022-09-09T11:29:29;3.90;;;1.90;;
12663;SDS011;6396;58.490;15.528;2022-09-09T11:32:19;1.80;;;1.70;;
12663;SDS011;6396;58.490;15.528;2022-09-09T11:35:17;3.37;;;1.70;;
12663;SDS011;6396;58.490;15.528;2022-09-09T11:38:02;2.60;;;1.83;;
12663;SDS011;6396;58.490;15.528;2022-09-09T11:40:43;3.33;;;1.63;;
12663;SDS011;6396;58.490;15.528;2022-09-09T11:43:12;1.77;;;1.60;;
12663;SDS011;6396;58.490;15.528;2022-09-09T11:45:42;4.07;;;2.03;;
12663;SDS011;6396;58.490;15.528;2022-09-09T11:48:22;3.83;;;1.90;;
12663;SDS011;6396;58.490;15.528;2022-09-09T11:51:03;2.53;;;1.70;;
12663;SDS011;6396;58.490;15.528;2022-09-09T11:53:33;2.50;;;1.90;;
12663;SDS011;6396;58.490;15.528;2022-09-09T11:56:01;3.17;;;1.80;;
12663;SDS011;6396;58.490;15.528;2022-09-09T11:58:32;3.23;;;1.97;;
12663;SDS011;6396;58.490;15.528;2022-09-09T12:01:13;2.33;;;1.50;;
12663;SDS011;6396;58.490;15.528;2022-09-09T12:03:55;3.83;;;2.03;;
12663;SDS011;6396;58.490;15.528;2022-09-09T12:06:43;2.03;;;1.83;;
12663;SDS011;6396;58.490;15.528;2022-09-09T12:09:18;1.80;;;1.70;;
12663;SDS011;6396;58.490;15.528;2022-09-09T12:11:49;3.83;;;1.60;;
12663;SDS011;6396;58.490;15.528;2022-09-09T12:14:20;2.30;;;1.70;;
12663;SDS011;6396;58.490;15.528;2022-09-09T12:16:48;3.30;;;1.93;;
12663;SDS011;6396;58.490;15.528;2022-09-09T12:19:16;2.40;;;2.20;;
12663;SDS011;6396;58.490;15.528;2022-09-09T12:21:51;7.17;;;2.07;;
12663;SDS011;6396;58.490;15.528;2022-09-09T12:24:26;2.10;;;1.80;;
12663;SDS011;6396;58.490;15.528;2022-09-09T12:27:01;2.37;;;1.80;;
12663;SDS011;6396;58.490;15.528;2022-09-09T12:29:37;2.73;;;1.80;;
12663;SDS011;6396;58.490;15.528;2022-09-09T12:32:11;2.23;;;1.83;;
12663;SDS011;6396;58.490;15.528;2022-09-09T12:34:42;4.40;;;2.10;;
12663;SDS011;6396;58.490;15.528;2022-09-09T12:37:21;2.00;;;1.73;;
12663;SDS011;6396;58.490;15.528;2022-09-09T12:39:56;3.13;;;2.13;;
12663;SDS011;6396;58.490;15.528;2022-09-09T12:42:24;4.47;;;2.23;;
12663;SDS011;6396;58.490;15.528;2022-09-09T12:44:55;2.50;;;1.83;;
12663;SDS011;6396;58.490;15.528;2022-09-09T12:47:26;3.73;;;1.90;;
12663;SDS011;6396;58.490;15.528;2022-09-09T12:50:00;4.37;;;2.07;;
12663;SDS011;6396;58.490;15.528;2022-09-09T12:52:29;2.17;;;1.97;;
12663;SDS011;6396;58.490;15.528;2022-09-09T12:54:59;3.50;;;2.20;;
12663;SDS011;6396;58.490;15.528;2022-09-09T12:57:30;3.53;;;2.10;;
12663;SDS011;6396;58.490;15.528;2022-09-09T13:00:07;3.27;;;2.23;;
12663;SDS011;6396;58.490;15.528;2022-09-09T13:02:45;2.27;;;1.93;;
12663;SDS011;6396;58.490;15.528;2022-09-09T13:05:15;2.53;;;2.30;;
12663;SDS011;6396;58.490;15.528;2022-09-09T13:07:44;3.77;;;2.00;;
12663;SDS011;6396;58.490;15.528;2022-09-09T13:10:12;2.60;;;2.17;;
12663;SDS011;6396;58.490;15.528;2022-09-09T13:12:40;3.93;;;2.07;;
12663;SDS011;6396;58.490;15.528;2022-09-09T13:15:14;3.37;;;2.17;;
12663;SDS011;6396;58.490;15.528;2022-09-09T13:17:49;5.30;;;2.43;;
12663;SDS011;6396;58.490;15.528;2022-09-09T13:20:18;5.67;;;2.20;;
12663;SDS011;6396;58.490;15.528;2022-09-09T13:22:48;2.83;;;1.80;;
12663;SDS011;6396;58.490;15.528;2022-09-09T13:25:23;5.23;;;2.10;;
12663;SDS011;6396;58.490;15.528;2022-09-09T13:27:56;2.83;;;1.97;;
12663;SDS011;6396;58.490;15.528;2022-09-09T13:30:26;2.30;;;1.87;;
12663;SDS011;6396;58.490;15.528;2022-09-09T13:33:19;4.87;;;2.00;;
12663;SDS011;6396;58.490;15.528;2022-09-09T13:35:49;3.00;;;1.90;;
12663;SDS011;6396;58.490;15.528;2022-09-09T13:38:19;3.40;;;1.90;;
12663;SDS011;6396;58.490;15.528;2022-09-09T13:40:54;4.23;;;2.00;;
12663;SDS011;6396;58.490;15.528;2022-09-09T13:43:24;2.67;;;1.90;;
12663;SDS011;6396;58.490;15.528;2022-09-09T13:45:53;2.63;;;1.90;;
12663;SDS011;6396;58.490;15.528;2022-09-09T13:48:23;13.90;;;2.33;;
12663;SDS011;6396;58.490;15.528;2022-09-09T13:50:57;2.43;;;1.70;;
12663;SDS011;6396;58.490;15.528;2022-09-09T13:53:28;2.70;;;1.83;;
12663;SDS011;6396;58.490;15.528;2022-09-09T13:55:55;5.87;;;1.90;;
12663;SDS011;6396;58.490;15.528;2022-09-09T13:58:23;4.40;;;2.20;;
12663;SDS011;6396;58.490;15.528;2022-09-09T14:00:51;2.87;;;1.83;;
12663;SDS011;6396;58.490;15.528;2022-09-09T14:03:18;8.03;;;2.10;;
12663;SDS011;6396;58.490;15.528;2022-09-09T14:05:46;4.83;;;2.00;;
12663;SDS011;6396;58.490;15.528;2022-09-09T14:08:20;3.43;;;2.20;;
12663;SDS011;6396;58.490;15.528;2022-09-09T14:10:50;2.27;;;2.07;;
12663;SDS011;6396;58.490;15.528;2022-09-09T14:13:17;2.10;;;1.90;;
12663;SDS011;6396;58.490;15.528;2022-09-09T14:15:47;4.97;;;2.37;;
12663;SDS011;6396;58.490;15.528;2022-09-09T14:18:14;3.57;;;1.90;;
12663;SDS011;6396;58.490;15.528;2022-09-09T14:20:41;3.33;;;1.83;;
12663;SDS011;6396;58.490;15.528;2022-09-09T14:23:10;5.07;;;2.10;;
12663;SDS011;6396;58.490;15.528;2022-09-09T14:25:39;5.00;;;2.20;;
12663;SDS011;6396;58.490;15.528;2022-09-09T14:28:10;8.67;;;2.20;;
12663;SDS011;6396;58.490;15.528;2022-09-09T14:30:39;2.77;;;1.90;;
12663;SDS011;6396;58.490;15.528;2022-09-09T14:33:07;6.10;;;2.20;;
12663;SDS011;6396;58.490;15.528;2022-09-09T14:35:34;3.50;;;1.90;;
12663;SDS011;6396;58.490;15.528;2022-09-09T14:38:02;3.97;;;2.20;;
12663;SDS011;6396;58.490;15.528;2022-09-09T14:40:29;2.23;;;1.80;;
12663;SDS011;6396;58.490;15.528;2022-09-09T14:42:57;4.43;;;2.10;;
12663;SDS011;6396;58.490;15.528;2022-09-09T14:45:25;2.73;;;1.70;;
12663;SDS011;6396;58.490;15.528;2022-09-09T14:47:52;2.47;;;1.60;;
12663;SDS011;6396;58.490;15.528;2022-09-09T14:50:19;3.27;;;2.00;;
12663;SDS011;6396;58.490;15.528;2022-09-09T14:52:46;2.90;;;2.27;;
12663;SDS011;6396;58.490;15.528;2022-09-09T14:55:14;4.43;;;2.00;;
12663;SDS011;6396;58.490;15.528;2022-09-09T14:57:41;3.37;;;2.53;;
12663;SDS011;6396;58.490;15.528;2022-09-09T15:00:08;3.57;;;1.90;;
12663;SDS011;6396;58.490;15.528;2022-09-09T15:02:37;4.17;;;2.30;;
12663;SDS011;6396;58.490;15.528;2022-09-09T15:05:04;2.97;;;1.80;;
12663;SDS011;6396;58.490;15.528;2022-09-09T15:07:32;1.77;;;1.67;;
12663;SDS011;6396;58.490;15.528;2022-09-09T15:09:59;2.40;;;2.00;;
12663;SDS011;6396;58.490;15.528;2022-09-09T15:12:25;2.80;;;2.00;;
12663;SDS011;6396;58.490;15.528;2022-09-09T15:14:53;4.10;;;2.10;;
12663;SDS011;6396;58.490;15.528;2022-09-09T15:17:20;4.03;;;2.00;;
12663;SDS011;6396;58.490;15.528;2022-09-09T15:19:48;3.03;;;2.40;;